Time;durP1;ratioP1;P1;durP2;ratioP2;P2;SDS_P1;SDS_P2;PMS_P1;PMS_P2;Temp;Humidity;BMP_temperature;BMP_pressure;BME280_temperature;BME280_humidity;BME280_pressure;Samples;Min_cycle;Max_cycle;Signal;HPM_P1;HPM_P2
2024/02/29 00:00:32;;;;;;;17.70;11.57;;;;;;;;;;5010435;28;20568;-69
2024/02/29 00:02:58;;;;;;;15.60;9.97;;;;;;;;;;5002364;28;20175;-69
2024/02/29 00:05:23;;;;;;;18.87;11.20;;;;;;;;;;5009962;28;20229;-70
2024/02/29 00:07:48;;;;;;;19.43;11.30;;;;;;;;;;5003697;28;20175;-70
2024/02/29 00:10:14;;;;;;;20.30;10.73;;;;;;;;;;4990840;28;20233;-71
2024/02/29 00:12:40;;;;;;;20.97;11.60;;;;;;;;;;5011188;28;20241;-71
2024/02/29 00:15:06;;;;;;;18.93;10.33;;;;;;;;;;5011284;28;20183;-71
2024/02/29 00:17:31;;;;;;;19.27;12.20;;;;;;;;;;5011716;28;20190;-71
2024/02/29 00:19:56;;;;;;;20.67;11.63;;;;;;;;;;5010248;28;20198;-71
2024/02/29 00:22:22;;;;;;;24.93;12.13;;;;;;;;;;4993843;28;20186;-70
2024/02/29 00:24:47;;;;;;;20.03;11.33;;;;;;;;;;5006388;28;20180;-70
2024/02/29 00:27:12;;;;;;;23.03;10.67;;;;;;;;;;5010892;28;20568;-69
2024/02/29 00:29:38;;;;;;;22.50;11.03;;;;;;;;;;5008693;28;20259;-70
2024/02/29 00:32:03;;;;;;;17.33;10.63;;;;;;;;;;5006888;28;20219;-70
2024/02/29 00:34:29;;;;;;;21.30;11.20;;;;;;;;;;5011629;28;20184;-69
2024/02/29 00:36:55;;;;;;;15.90;11.13;;;;;;;;;;5011449;28;20206;-69
2024/02/29 00:39:20;;;;;;;21.10;9.63;;;;;;;;;;5009825;28;20175;-70
2024/02/29 00:41:47;;;;;;;19.17;11.27;;;;;;;;;;4986580;28;20179;-69
2024/02/29 00:44:12;;;;;;;18.60;10.47;;;;;;;;;;5010653;28;20175;-68
2024/02/29 00:46:38;;;;;;;19.00;11.10;;;;;;;;;;4993967;28;20285;-69
2024/02/29 00:49:03;;;;;;;20.07;11.03;;;;;;;;;;5014978;28;20181;-70
2024/02/29 00:51:28;;;;;;;21.20;11.50;;;;;;;;;;5017309;28;20210;-70
2024/02/29 00:53:53;;;;;;;20.40;10.63;;;;;;;;;;5012124;28;20689;-69
2024/02/29 00:56:19;;;;;;;21.90;11.07;;;;;;;;;;5011164;28;20197;-69
2024/02/29 00:58:44;;;;;;;24.60;10.63;;;;;;;;;;5006903;28;20183;-68
2024/02/29 01:01:09;;;;;;;20.80;11.37;;;;;;;;;;5006071;28;20191;-69
2024/02/29 01:03:35;;;;;;;19.00;10.67;;;;;;;;;;4993870;28;20267;-69
2024/02/29 01:06:00;;;;;;;19.80;11.20;;;;;;;;;;5011040;28;20604;-70
2024/02/29 01:08:26;;;;;;;20.73;11.37;;;;;;;;;;5012035;28;20179;-71
2024/02/29 01:10:51;;;;;;;21.50;10.10;;;;;;;;;;5013669;28;20206;-71
2024/02/29 01:13:16;;;;;;;19.40;10.57;;;;;;;;;;5014504;28;20175;-71
2024/02/29 01:15:41;;;;;;;16.87;9.30;;;;;;;;;;5011254;28;20180;-70
2024/02/29 01:18:07;;;;;;;22.93;10.97;;;;;;;;;;5008100;28;20218;-70
2024/02/29 01:20:32;;;;;;;20.97;11.07;;;;;;;;;;5014223;28;20222;-70
2024/02/29 01:22:58;;;;;;;17.73;10.73;;;;;;;;;;5015146;28;20175;-71
2024/02/29 01:25:23;;;;;;;16.60;10.47;;;;;;;;;;5014344;28;20237;-70
2024/02/29 01:27:50;;;;;;;22.03;10.50;;;;;;;;;;5011058;28;20234;-69
2024/02/29 01:30:15;;;;;;;23.47;11.53;;;;;;;;;;5014677;28;20658;-69
2024/02/29 01:32:40;;;;;;;19.67;10.73;;;;;;;;;;5001294;28;20207;-68
2024/02/29 01:35:07;;;;;;;18.23;9.63;;;;;;;;;;5013413;28;20712;-69
2024/02/29 01:37:32;;;;;;;19.03;10.23;;;;;;;;;;4993785;28;20269;-69
2024/02/29 01:39:57;;;;;;;20.50;11.00;;;;;;;;;;5011678;28;20649;-69
2024/02/29 01:42:23;;;;;;;20.13;10.47;;;;;;;;;;5010297;28;20175;-69
2024/02/29 01:44:54;;;;;;;23.47;9.70;;;;;;;;;;5012711;28;20182;-69
2024/02/29 01:47:23;;;;;;;16.67;9.60;;;;;;;;;;5014646;28;20186;-69
2024/02/29 01:49:48;;;;;;;19.83;10.70;;;;;;;;;;5014104;28;20198;-69
2024/02/29 01:52:14;;;;;;;22.97;9.83;;;;;;;;;;5006428;28;20274;-69
2024/02/29 01:54:40;;;;;;;19.17;9.70;;;;;;;;;;5008523;28;20182;-69
2024/02/29 01:57:05;;;;;;;19.57;9.87;;;;;;;;;;5016827;28;20194;-69
2024/02/29 01:59:31;;;;;;;17.70;10.67;;;;;;;;;;5030527;28;20745;-68
2024/02/29 02:01:56;;;;;;;19.17;10.77;;;;;;;;;;5017772;28;20190;-69
2024/02/29 02:04:21;;;;;;;19.37;10.43;;;;;;;;;;4995815;28;20186;-68
2024/02/29 02:06:47;;;;;;;18.03;10.33;;;;;;;;;;5013937;28;20738;-69
2024/02/29 02:09:12;;;;;;;18.60;10.50;;;;;;;;;;5013397;28;20177;-69
2024/02/29 02:11:38;;;;;;;21.30;11.30;;;;;;;;;;5017438;23;20227;-73
2024/02/29 02:14:04;;;;;;;17.03;10.20;;;;;;;;;;5007269;28;20259;-73
2024/02/29 02:16:29;;;;;;;18.80;10.87;;;;;;;;;;5007521;28;20207;-73
2024/02/29 02:18:55;;;;;;;20.37;11.50;;;;;;;;;;5013359;28;20254;-74
2024/02/29 02:21:20;;;;;;;19.33;10.40;;;;;;;;;;4998422;28;20206;-74
2024/02/29 02:23:45;;;;;;;19.23;10.40;;;;;;;;;;4993657;28;20184;-73
2024/02/29 02:26:10;;;;;;;22.30;10.20;;;;;;;;;;4993772;28;20222;-74
2024/02/29 02:28:36;;;;;;;19.43;10.40;;;;;;;;;;4986738;28;20218;-73
2024/02/29 02:31:01;;;;;;;23.07;11.17;;;;;;;;;;4988435;28;20203;-73
2024/02/29 02:33:26;;;;;;;23.27;10.27;;;;;;;;;;4990167;28;20175;-73
2024/02/29 02:35:51;;;;;;;18.03;11.50;;;;;;;;;;4994866;28;20186;-75
2024/02/29 02:38:16;;;;;;;20.53;10.43;;;;;;;;;;4976030;28;20294;-74
2024/02/29 02:40:42;;;;;;;21.37;10.33;;;;;;;;;;4989213;28;20578;-73
2024/02/29 02:43:07;;;;;;;18.97;9.83;;;;;;;;;;4992767;28;20182;-74
2024/02/29 02:45:32;;;;;;;17.43;9.87;;;;;;;;;;4993255;28;20202;-73
2024/02/29 02:47:58;;;;;;;17.43;10.40;;;;;;;;;;4992347;28;20175;-74
2024/02/29 02:50:23;;;;;;;24.73;11.47;;;;;;;;;;4993365;28;20195;-73
2024/02/29 02:52:49;;;;;;;22.40;11.17;;;;;;;;;;4984439;28;20184;-73
2024/02/29 02:55:14;;;;;;;18.73;10.17;;;;;;;;;;4992773;28;20777;-74
2024/02/29 02:57:39;;;;;;;19.53;9.87;;;;;;;;;;4994742;28;20208;-73
2024/02/29 03:00:05;;;;;;;17.37;9.27;;;;;;;;;;4991702;28;20198;-73
2024/02/29 03:02:30;;;;;;;19.67;10.80;;;;;;;;;;4990382;28;20179;-73
2024/02/29 03:04:55;;;;;;;20.13;10.83;;;;;;;;;;4992832;28;20188;-73
2024/02/29 03:07:21;;;;;;;20.37;10.43;;;;;;;;;;4993026;28;20559;-73
2024/02/29 03:09:46;;;;;;;18.97;9.73;;;;;;;;;;4995900;28;20171;-72
2024/02/29 03:12:11;;;;;;;19.27;11.63;;;;;;;;;;4989623;28;20562;-74
2024/02/29 03:14:37;;;;;;;26.13;11.57;;;;;;;;;;4992135;28;20694;-74
2024/02/29 03:17:03;;;;;;;21.50;11.07;;;;;;;;;;4988809;28;20552;-73
2024/02/29 03:19:28;;;;;;;24.53;11.97;;;;;;;;;;4986229;28;20183;-73
2024/02/29 03:21:53;;;;;;;17.90;10.47;;;;;;;;;;4990204;28;20196;-73
2024/02/29 03:24:18;;;;;;;23.33;12.27;;;;;;;;;;4992045;28;20183;-73
2024/02/29 03:26:44;;;;;;;17.67;10.80;;;;;;;;;;4990428;28;20179;-73
2024/02/29 03:29:11;;;;;;;22.37;10.90;;;;;;;;;;4989890;28;20715;-73
2024/02/29 03:31:37;;;;;;;19.40;11.10;;;;;;;;;;4986773;28;20579;-73
2024/02/29 03:34:02;;;;;;;25.83;11.47;;;;;;;;;;4985565;28;20180;-73
2024/02/29 03:36:27;;;;;;;17.77;10.60;;;;;;;;;;4980600;28;20207;-73
2024/02/29 03:38:52;;;;;;;24.33;11.00;;;;;;;;;;4992332;28;20702;-73
2024/02/29 03:41:18;;;;;;;20.17;11.57;;;;;;;;;;4989778;28;20191;-73
2024/02/29 03:43:43;;;;;;;23.57;11.70;;;;;;;;;;4994660;28;20175;-73
2024/02/29 03:46:09;;;;;;;22.00;11.17;;;;;;;;;;4990650;28;20186;-73
2024/02/29 03:48:35;;;;;;;22.60;12.67;;;;;;;;;;4977031;28;20555;-72
2024/02/29 03:51:01;;;;;;;22.73;11.87;;;;;;;;;;4985887;28;20649;-74
2024/02/29 03:53:26;;;;;;;22.57;12.33;;;;;;;;;;4979454;28;20271;-73
2024/02/29 03:55:51;;;;;;;25.13;12.57;;;;;;;;;;4979285;28;20267;-73
2024/02/29 03:58:16;;;;;;;20.77;11.80;;;;;;;;;;4986659;28;20250;-73
2024/02/29 04:00:44;;;;;;;21.70;12.00;;;;;;;;;;4986636;28;20586;-73
2024/02/29 04:03:09;;;;;;;21.70;12.13;;;;;;;;;;4988938;28;20250;-74
2024/02/29 04:05:34;;;;;;;22.77;12.50;;;;;;;;;;4987135;28;20176;-74
2024/02/29 04:08:03;;;;;;;27.90;12.77;;;;;;;;;;4988695;28;20262;-73
2024/02/29 04:10:28;;;;;;;26.97;12.63;;;;;;;;;;4991206;28;20230;-73
2024/02/29 04:12:54;;;;;;;25.33;12.27;;;;;;;;;;4990382;28;20183;-73
2024/02/29 04:15:19;;;;;;;24.23;12.60;;;;;;;;;;4988196;28;20564;-74
2024/02/29 04:17:44;;;;;;;23.00;12.67;;;;;;;;;;4980137;28;20697;-73
2024/02/29 04:20:09;;;;;;;24.30;13.13;;;;;;;;;;4993572;28;20210;-73
2024/02/29 04:22:35;;;;;;;22.73;12.67;;;;;;;;;;4991685;28;20263;-73
2024/02/29 04:25:00;;;;;;;27.27;12.73;;;;;;;;;;4993527;28;20207;-73
2024/02/29 04:27:25;;;;;;;25.17;13.13;;;;;;;;;;4991956;28;20275;-73
2024/02/29 04:29:50;;;;;;;25.23;13.77;;;;;;;;;;4996180;28;20683;-73
2024/02/29 04:32:15;;;;;;;25.70;12.97;;;;;;;;;;4979474;28;20664;-73
2024/02/29 04:34:41;;;;;;;25.60;14.33;;;;;;;;;;4990789;28;20183;-73
2024/02/29 04:37:06;;;;;;;21.17;12.70;;;;;;;;;;4987797;28;20541;-73
2024/02/29 04:39:32;;;;;;;26.70;13.43;;;;;;;;;;4992775;28;20560;-73
2024/02/29 04:41:57;;;;;;;26.83;13.30;;;;;;;;;;4990614;28;20240;-73
2024/02/29 04:44:22;;;;;;;27.23;13.50;;;;;;;;;;4992967;28;20179;-73
2024/02/29 04:46:47;;;;;;;24.70;13.17;;;;;;;;;;4991994;28;20179;-73
2024/02/29 04:49:12;;;;;;;26.07;13.23;;;;;;;;;;4986770;28;20226;-74
2024/02/29 04:51:37;;;;;;;26.67;13.27;;;;;;;;;;4989067;28;20199;-74
2024/02/29 04:54:03;;;;;;;25.83;14.00;;;;;;;;;;4988368;28;20188;-74
2024/02/29 04:56:28;;;;;;;30.17;13.07;;;;;;;;;;4979827;28;20183;-73
2024/02/29 04:58:53;;;;;;;23.50;13.50;;;;;;;;;;4990086;28;20183;-73
2024/02/29 05:01:19;;;;;;;24.23;12.70;;;;;;;;;;4974125;28;20207;-74
2024/02/29 05:03:44;;;;;;;24.60;13.83;;;;;;;;;;4969662;28;20296;-73
2024/02/29 05:06:14;;;;;;;31.13;13.97;;;;;;;;;;4988502;28;20636;-73
2024/02/29 05:08:39;;;;;;;22.13;12.23;;;;;;;;;;4988321;28;20180;-74
2024/02/29 05:11:07;;;;;;;26.47;12.97;;;;;;;;;;4991490;28;20272;-74
2024/02/29 05:13:32;;;;;;;26.83;12.67;;;;;;;;;;4988724;28;20180;-74
2024/02/29 05:15:58;;;;;;;24.57;12.23;;;;;;;;;;4980152;28;20227;-74
2024/02/29 05:18:26;;;;;;;24.53;11.73;;;;;;;;;;4990677;28;20200;-74
2024/02/29 05:20:51;;;;;;;25.27;13.10;;;;;;;;;;4986645;28;20757;-74
2024/02/29 05:23:17;;;;;;;27.93;13.17;;;;;;;;;;4995639;28;20184;-73
2024/02/29 05:25:43;;;;;;;28.20;13.93;;;;;;;;;;4993443;28;20698;-73
2024/02/29 05:28:08;;;;;;;29.07;13.77;;;;;;;;;;4990553;28;20310;-73
2024/02/29 05:30:33;;;;;;;22.03;12.23;;;;;;;;;;4972152;28;20204;-73
2024/02/29 05:32:58;;;;;;;22.77;13.03;;;;;;;;;;4987228;28;20218;-73
2024/02/29 05:35:25;;;;;;;26.20;12.67;;;;;;;;;;4984985;28;20233;-74
2024/02/29 05:37:50;;;;;;;20.63;12.00;;;;;;;;;;4987535;28;20334;-74
2024/02/29 05:40:16;;;;;;;21.17;11.80;;;;;;;;;;4991647;28;20778;-73
2024/02/29 05:42:41;;;;;;;26.93;12.60;;;;;;;;;;4988677;28;20181;-73
2024/02/29 05:45:06;;;;;;;23.70;12.63;;;;;;;;;;4991400;28;20175;-73
2024/02/29 05:47:32;;;;;;;22.63;11.77;;;;;;;;;;4975441;28;20378;-73
2024/02/29 05:49:57;;;;;;;24.10;12.00;;;;;;;;;;4988834;28;20603;-73
2024/02/29 05:52:22;;;;;;;26.03;11.67;;;;;;;;;;4992553;28;20262;-74
2024/02/29 05:54:48;;;;;;;26.83;13.60;;;;;;;;;;4997905;28;20651;-72
2024/02/29 05:57:15;;;;;;;23.20;12.87;;;;;;;;;;4992776;28;20695;-73
2024/02/29 05:59:40;;;;;;;20.20;11.53;;;;;;;;;;4994185;28;20182;-73
2024/02/29 06:02:05;;;;;;;24.17;12.50;;;;;;;;;;4997192;28;20197;-73
2024/02/29 06:04:30;;;;;;;24.83;11.80;;;;;;;;;;4997101;28;20176;-73
2024/02/29 06:06:55;;;;;;;25.27;12.10;;;;;;;;;;4994123;28;20192;-74
2024/02/29 06:09:21;;;;;;;23.70;11.90;;;;;;;;;;4994109;28;20206;-73
2024/02/29 06:11:47;;;;;;;18.60;11.33;;;;;;;;;;4975944;28;20321;-74
2024/02/29 06:14:12;;;;;;;21.80;11.17;;;;;;;;;;4999211;28;20187;-73
2024/02/29 06:16:38;;;;;;;19.20;11.00;;;;;;;;;;4995462;28;20227;-73
2024/02/29 06:19:03;;;;;;;20.70;12.10;;;;;;;;;;4994936;28;20175;-72
2024/02/29 06:21:28;;;;;;;22.53;12.07;;;;;;;;;;4993748;28;20738;-73
2024/02/29 06:23:54;;;;;;;23.30;12.70;;;;;;;;;;4992095;28;20384;-73
2024/02/29 06:26:19;;;;;;;19.67;11.53;;;;;;;;;;4999982;28;20660;-74
2024/02/29 06:28:44;;;;;;;26.63;10.97;;;;;;;;;;4985178;28;20184;-73
2024/02/29 06:31:10;;;;;;;19.03;10.67;;;;;;;;;;4996106;28;20207;-73
2024/02/29 06:33:36;;;;;;;21.97;10.60;;;;;;;;;;4997387;28;20207;-74
2024/02/29 06:36:03;;;;;;;23.60;12.63;;;;;;;;;;4976460;28;20668;-74
2024/02/29 06:38:28;;;;;;;25.47;11.60;;;;;;;;;;4992685;28;20204;-73
2024/02/29 06:40:54;;;;;;;17.83;10.73;;;;;;;;;;4991138;28;20219;-73
2024/02/29 06:43:19;;;;;;;21.70;11.50;;;;;;;;;;4994849;28;20235;-72
2024/02/29 06:45:48;;;;;;;21.80;11.23;;;;;;;;;;4992566;28;20176;-73
2024/02/29 06:48:17;;;;;;;20.47;10.83;;;;;;;;;;4978573;28;21040;-72
2024/02/29 06:50:43;;;;;;;18.13;11.37;;;;;;;;;;4993418;28;20698;-73
2024/02/29 06:53:10;;;;;;;17.90;11.37;;;;;;;;;;4998475;28;20186;-73
2024/02/29 06:55:35;;;;;;;20.00;10.90;;;;;;;;;;4977806;28;20199;-73
2024/02/29 06:58:02;;;;;;;24.87;12.03;;;;;;;;;;4986248;28;20211;-72
2024/02/29 07:00:28;;;;;;;22.00;10.17;;;;;;;;;;4967128;28;20203;-72
2024/02/29 07:02:53;;;;;;;20.57;11.33;;;;;;;;;;4982422;28;20242;-72
2024/02/29 07:05:18;;;;;;;21.97;10.07;;;;;;;;;;4973490;28;20187;-72
2024/02/29 07:07:44;;;;;;;18.40;9.90;;;;;;;;;;4996376;28;20251;-72
2024/02/29 07:10:10;;;;;;;18.97;11.10;;;;;;;;;;4993740;28;20233;-72
2024/02/29 07:12:36;;;;;;;18.13;10.13;;;;;;;;;;4991552;28;20694;-72
2024/02/29 07:15:02;;;;;;;20.77;10.37;;;;;;;;;;4992556;28;20184;-73
2024/02/29 07:17:29;;;;;;;20.43;10.93;;;;;;;;;;4994538;28;20683;-73
2024/02/29 07:19:54;;;;;;;17.53;9.83;;;;;;;;;;4991231;28;20186;-74
2024/02/29 07:22:19;;;;;;;22.03;11.53;;;;;;;;;;4982304;28;20167;-73
2024/02/29 07:24:45;;;;;;;22.67;10.00;;;;;;;;;;4990561;28;20712;-73
2024/02/29 07:27:10;;;;;;;15.67;9.47;;;;;;;;;;4996282;28;20187;-73
2024/02/29 07:29:35;;;;;;;18.97;10.17;;;;;;;;;;4995271;28;20191;-73
2024/02/29 07:32:00;;;;;;;21.83;9.87;;;;;;;;;;4988804;28;20219;-74
2024/02/29 07:34:25;;;;;;;19.47;10.63;;;;;;;;;;4996712;28;20223;-72
2024/02/29 07:36:51;;;;;;;19.03;10.30;;;;;;;;;;4997972;28;20657;-73
2024/02/29 07:39:16;;;;;;;16.27;9.00;;;;;;;;;;4981971;28;20679;-73
2024/02/29 07:41:41;;;;;;;17.03;10.10;;;;;;;;;;4990157;28;20196;-73
2024/02/29 07:44:06;;;;;;;17.70;9.50;;;;;;;;;;4996493;28;20183;-73
2024/02/29 07:46:32;;;;;;;17.10;10.30;;;;;;;;;;4991901;28;20183;-73
2024/02/29 07:48:58;;;;;;;18.53;10.50;;;;;;;;;;4993113;28;20191;-73
2024/02/29 07:51:24;;;;;;;17.97;10.40;;;;;;;;;;4991300;28;20253;-73
2024/02/29 07:53:49;;;;;;;21.57;10.20;;;;;;;;;;4991734;28;20593;-72
2024/02/29 07:56:15;;;;;;;17.00;10.40;;;;;;;;;;4994701;28;20184;-73
2024/02/29 07:58:40;;;;;;;17.97;10.43;;;;;;;;;;4984879;28;20215;-73
2024/02/29 08:01:05;;;;;;;16.10;9.90;;;;;;;;;;4981425;28;20206;-73
2024/02/29 08:03:32;;;;;;;19.63;10.73;;;;;;;;;;4987530;28;20176;-73
2024/02/29 08:05:57;;;;;;;19.03;10.70;;;;;;;;;;4982142;28;20187;-73
2024/02/29 08:08:22;;;;;;;20.63;10.03;;;;;;;;;;4992775;28;20184;-73
2024/02/29 08:10:47;;;;;;;21.27;11.37;;;;;;;;;;5015444;23;20233;-71
2024/02/29 08:13:13;;;;;;;23.37;10.70;;;;;;;;;;5010919;28;20175;-71
2024/02/29 08:15:38;;;;;;;15.13;9.70;;;;;;;;;;5009960;28;20177;-71
2024/02/29 08:18:03;;;;;;;19.80;10.23;;;;;;;;;;5008021;28;20207;-73
2024/02/29 08:20:28;;;;;;;18.37;10.50;;;;;;;;;;4992794;28;20210;-70
2024/02/29 08:22:54;;;;;;;16.63;9.83;;;;;;;;;;5004757;28;20171;-70
2024/02/29 08:25:20;;;;;;;15.53;9.50;;;;;;;;;;5006329;28;20712;-72
2024/02/29 08:27:46;;;;;;;20.77;9.33;;;;;;;;;;4994279;28;20198;-71
2024/02/29 08:30:12;;;;;;;17.83;10.00;;;;;;;;;;5005942;28;20202;-71
2024/02/29 08:32:38;;;;;;;16.80;9.10;;;;;;;;;;5010136;28;20185;-71
2024/02/29 08:35:03;;;;;;;14.97;8.33;;;;;;;;;;5011319;28;20266;-71
2024/02/29 08:37:28;;;;;;;14.87;9.03;;;;;;;;;;5011511;28;20237;-72
2024/02/29 08:39:54;;;;;;;15.03;8.57;;;;;;;;;;5003741;28;20704;-71
2024/02/29 08:42:20;;;;;;;16.40;9.67;;;;;;;;;;5004125;28;20214;-71
2024/02/29 08:44:46;;;;;;;18.67;9.33;;;;;;;;;;4998199;28;20183;-71
2024/02/29 08:47:12;;;;;;;16.83;8.87;;;;;;;;;;5009491;28;20257;-71
2024/02/29 08:49:37;;;;;;;19.00;9.93;;;;;;;;;;5023304;28;20262;-72
2024/02/29 08:52:02;;;;;;;20.77;10.60;;;;;;;;;;5013051;28;20207;-71
2024/02/29 08:54:27;;;;;;;15.70;9.67;;;;;;;;;;5006928;28;20182;-72
2024/02/29 08:56:52;;;;;;;17.73;8.87;;;;;;;;;;4985439;28;20653;-72
2024/02/29 08:59:18;;;;;;;17.13;9.30;;;;;;;;;;4990816;28;20683;-71
2024/02/29 09:01:43;;;;;;;13.87;8.43;;;;;;;;;;5010246;28;20203;-72
2024/02/29 09:04:08;;;;;;;18.43;10.33;;;;;;;;;;5009074;28;20257;-71
2024/02/29 09:06:33;;;;;;;14.60;9.50;;;;;;;;;;5005180;28;20176;-71
2024/02/29 09:08:59;;;;;;;16.83;9.87;;;;;;;;;;5002193;28;20182;-71
2024/02/29 09:11:24;;;;;;;16.53;8.37;;;;;;;;;;5007787;28;20241;-71
2024/02/29 09:13:49;;;;;;;17.33;8.93;;;;;;;;;;4990066;28;20678;-71
2024/02/29 09:16:16;;;;;;;18.40;9.70;;;;;;;;;;5010190;28;20191;-71
2024/02/29 09:18:41;;;;;;;20.27;11.07;;;;;;;;;;5008329;28;20207;-71
2024/02/29 09:21:06;;;;;;;18.57;10.20;;;;;;;;;;5005030;28;20253;-72
2024/02/29 09:23:32;;;;;;;16.30;9.00;;;;;;;;;;5008726;28;20167;-71
2024/02/29 09:25:57;;;;;;;19.47;10.53;;;;;;;;;;5010608;28;20689;-71
2024/02/29 09:28:22;;;;;;;19.13;10.83;;;;;;;;;;5010574;28;20199;-73
2024/02/29 09:30:48;;;;;;;16.23;9.53;;;;;;;;;;5009882;28;20674;-71
2024/02/29 09:33:13;;;;;;;16.23;10.20;;;;;;;;;;5006171;28;20605;-71
2024/02/29 09:35:38;;;;;;;18.40;10.03;;;;;;;;;;5010465;28;20244;-71
2024/02/29 09:38:04;;;;;;;18.90;10.90;;;;;;;;;;4996874;28;20201;-72
2024/02/29 09:40:29;;;;;;;18.00;10.77;;;;;;;;;;4985216;28;20224;-71
2024/02/29 09:42:55;;;;;;;17.07;9.73;;;;;;;;;;5007213;28;20604;-71
2024/02/29 09:45:23;;;;;;;18.67;10.03;;;;;;;;;;5012923;28;20792;-71
2024/02/29 09:47:50;;;;;;;15.17;9.77;;;;;;;;;;5012322;28;20206;-71
2024/02/29 09:50:15;;;;;;;19.80;10.17;;;;;;;;;;5006502;28;20593;-70
2024/02/29 09:52:42;;;;;;;19.03;10.37;;;;;;;;;;5008956;28;20183;-71
2024/02/29 09:55:12;;;;;;;16.20;10.40;;;;;;;;;;5013861;28;20175;-71
2024/02/29 09:57:38;;;;;;;15.83;10.10;;;;;;;;;;5030530;28;20710;-72
2024/02/29 10:00:05;;;;;;;17.43;10.67;;;;;;;;;;5017857;28;20167;-71
2024/02/29 10:02:32;;;;;;;18.63;10.97;;;;;;;;;;5008251;28;20182;-71
2024/02/29 10:04:57;;;;;;;18.73;10.17;;;;;;;;;;5011195;28;20167;-71
2024/02/29 10:07:23;;;;;;;17.50;10.47;;;;;;;;;;4995423;28;20567;-71
2024/02/29 10:09:49;;;;;;;17.80;11.17;;;;;;;;;;5012652;28;20183;-72
2024/02/29 10:12:15;;;;;;;20.50;11.17;;;;;;;;;;5002798;28;20567;-71
2024/02/29 10:14:40;;;;;;;18.37;10.20;;;;;;;;;;4996468;28;20222;-71
2024/02/29 10:17:05;;;;;;;19.33;10.57;;;;;;;;;;5013744;28;20222;-71
2024/02/29 10:19:33;;;;;;;16.60;10.80;;;;;;;;;;5009878;28;20222;-71
2024/02/29 10:21:58;;;;;;;19.60;12.10;;;;;;;;;;5006141;28;20198;-71
2024/02/29 10:24:26;;;;;;;19.30;10.97;;;;;;;;;;5013215;28;20182;-72
2024/02/29 10:26:58;;;;;;;23.20;13.13;;;;;;;;;;4996314;28;20512;-71
2024/02/29 10:29:23;;;;;;;16.70;11.07;;;;;;;;;;5013064;28;20651;-70
2024/02/29 10:31:48;;;;;;;16.93;10.80;;;;;;;;;;4992000;28;20209;-70
2024/02/29 10:34:15;;;;;;;17.93;10.87;;;;;;;;;;5012944;28;20175;-71
2024/02/29 10:36:42;;;;;;;19.40;10.17;;;;;;;;;;5011573;28;20179;-70
2024/02/29 10:39:08;;;;;;;20.20;11.00;;;;;;;;;;5006830;28;20179;-70
2024/02/29 10:41:36;;;;;;;19.97;11.20;;;;;;;;;;4999251;28;20246;-70
2024/02/29 10:44:03;;;;;;;20.63;10.77;;;;;;;;;;4990713;28;20572;-69
2024/02/29 10:46:29;;;;;;;18.87;11.60;;;;;;;;;;4995775;28;20182;-70
2024/02/29 10:49:07;;;;;;;18.10;11.10;;;;;;;;;;5013592;28;20250;-70
2024/02/29 10:51:40;;;;;;;18.00;11.10;;;;;;;;;;5006498;28;20203;-70
2024/02/29 10:54:14;;;;;;;16.87;10.03;;;;;;;;;;5006048;28;20171;-71
2024/02/29 10:56:39;;;;;;;16.63;9.70;;;;;;;;;;4989137;28;20180;-71
2024/02/29 10:59:07;;;;;;;18.50;9.57;;;;;;;;;;4985504;28;20182;-71
2024/02/29 11:01:36;;;;;;;22.47;10.77;;;;;;;;;;4982328;28;20187;-71
2024/02/29 11:04:01;;;;;;;15.47;9.53;;;;;;;;;;5016410;28;20171;-70
2024/02/29 11:06:28;;;;;;;16.87;10.50;;;;;;;;;;5032563;28;20796;-72
2024/02/29 11:08:54;;;;;;;16.50;9.47;;;;;;;;;;5017670;28;20167;-71
2024/02/29 11:11:20;;;;;;;15.60;10.87;;;;;;;;;;5003654;28;20214;-71
2024/02/29 11:13:45;;;;;;;16.37;10.00;;;;;;;;;;4987662;28;20171;-71
2024/02/29 11:16:11;;;;;;;15.93;9.80;;;;;;;;;;5012768;28;20175;-71
2024/02/29 11:18:37;;;;;;;15.73;9.87;;;;;;;;;;5003904;28;20240;-70
2024/02/29 11:21:03;;;;;;;16.27;9.47;;;;;;;;;;5005939;28;20311;-71
2024/02/29 11:23:29;;;;;;;15.93;8.93;;;;;;;;;;5004513;28;20674;-71
2024/02/29 11:25:54;;;;;;;14.30;9.53;;;;;;;;;;5002377;28;20678;-71
2024/02/29 11:28:29;;;;;;;15.63;9.20;;;;;;;;;;5012221;28;20213;-72
2024/02/29 11:30:54;;;;;;;17.43;9.37;;;;;;;;;;5013113;28;20194;-70
2024/02/29 11:33:20;;;;;;;15.43;9.03;;;;;;;;;;4991901;28;20611;-71
2024/02/29 11:35:46;;;;;;;19.57;10.13;;;;;;;;;;5003057;28;20184;-71
2024/02/29 11:38:11;;;;;;;17.60;9.83;;;;;;;;;;5011273;28;20221;-70
2024/02/29 11:40:36;;;;;;;14.63;9.37;;;;;;;;;;5011445;28;20195;-71
2024/02/29 11:43:02;;;;;;;16.57;10.23;;;;;;;;;;5002056;28;20663;-71
2024/02/29 11:45:28;;;;;;;16.43;9.80;;;;;;;;;;5003630;28;20241;-71
2024/02/29 11:47:53;;;;;;;16.90;9.87;;;;;;;;;;5010020;28;20413;-70
2024/02/29 11:50:18;;;;;;;17.63;9.00;;;;;;;;;;5011694;28;20194;-71
2024/02/29 11:52:43;;;;;;;13.70;8.77;;;;;;;;;;5005412;28;20269;-70
2024/02/29 11:55:10;;;;;;;14.80;8.93;;;;;;;;;;5012655;28;20179;-72
2024/02/29 11:57:36;;;;;;;14.83;9.77;;;;;;;;;;5012403;28;20553;-71
2024/02/29 12:00:01;;;;;;;11.90;8.40;;;;;;;;;;5003519;28;20215;-71
2024/02/29 12:02:26;;;;;;;16.00;9.37;;;;;;;;;;5003316;28;20666;-71
2024/02/29 12:04:52;;;;;;;17.63;9.30;;;;;;;;;;4994242;28;20179;-71
2024/02/29 12:07:17;;;;;;;15.30;8.40;;;;;;;;;;5008619;28;20225;-71
2024/02/29 12:09:42;;;;;;;17.80;9.57;;;;;;;;;;4989964;28;20187;-70
2024/02/29 12:12:08;;;;;;;15.30;8.90;;;;;;;;;;4992714;28;20207;-71
2024/02/29 12:14:35;;;;;;;14.50;8.63;;;;;;;;;;5027015;28;20178;-70
2024/02/29 12:17:01;;;;;;;14.40;9.27;;;;;;;;;;5012317;28;20195;-71
2024/02/29 12:19:26;;;;;;;13.20;8.53;;;;;;;;;;5005811;28;20545;-71
2024/02/29 12:21:52;;;;;;;11.53;8.27;;;;;;;;;;5002658;28;20195;-71
2024/02/29 12:24:18;;;;;;;12.27;7.23;;;;;;;;;;5005383;28;20186;-71
2024/02/29 12:26:43;;;;;;;12.10;8.07;;;;;;;;;;4993961;28;20183;-70
2024/02/29 12:29:08;;;;;;;13.37;7.17;;;;;;;;;;5000409;28;20597;-71
2024/02/29 12:31:34;;;;;;;12.20;7.27;;;;;;;;;;4990505;28;20207;-70
2024/02/29 12:34:00;;;;;;;11.10;6.57;;;;;;;;;;5007391;28;20203;-70
2024/02/29 12:36:26;;;;;;;10.23;6.90;;;;;;;;;;5005584;28;20202;-71
2024/02/29 12:38:52;;;;;;;11.43;6.57;;;;;;;;;;5009849;28;20239;-71
2024/02/29 12:41:17;;;;;;;9.90;6.90;;;;;;;;;;4992437;28;20290;-71
2024/02/29 12:43:48;;;;;;;10.33;6.67;;;;;;;;;;5002359;28;20269;-70
2024/02/29 12:46:13;;;;;;;8.40;5.93;;;;;;;;;;5005889;28;20183;-71
2024/02/29 12:48:38;;;;;;;10.90;6.10;;;;;;;;;;5009749;28;20171;-70
2024/02/29 12:51:03;;;;;;;10.77;5.80;;;;;;;;;;5011542;28;20214;-71
2024/02/29 12:53:29;;;;;;;11.07;6.60;;;;;;;;;;5010569;28;20651;-71
2024/02/29 12:55:54;;;;;;;11.07;6.87;;;;;;;;;;5004828;28;20179;-72
2024/02/29 12:58:19;;;;;;;11.47;6.67;;;;;;;;;;5005060;28;20194;-71
2024/02/29 13:00:44;;;;;;;11.13;6.67;;;;;;;;;;5011053;28;20198;-71
2024/02/29 13:03:10;;;;;;;12.87;7.13;;;;;;;;;;5011261;28;20171;-71
2024/02/29 13:05:35;;;;;;;11.37;7.47;;;;;;;;;;5005124;28;20187;-70
2024/02/29 13:08:02;;;;;;;8.77;6.10;;;;;;;;;;5011250;28;20178;-70
2024/02/29 13:10:28;;;;;;;10.03;7.07;;;;;;;;;;4997264;28;20621;-70
2024/02/29 13:12:53;;;;;;;10.50;6.77;;;;;;;;;;4997090;28;20269;-71
2024/02/29 13:15:18;;;;;;;9.80;7.33;;;;;;;;;;5014331;28;20190;-70
2024/02/29 13:17:44;;;;;;;11.60;6.53;;;;;;;;;;5009653;28;20217;-70
2024/02/29 13:20:10;;;;;;;9.07;6.93;;;;;;;;;;5024933;28;20229;-71
2024/02/29 13:22:35;;;;;;;10.77;8.00;;;;;;;;;;5027551;28;20197;-70
2024/02/29 13:25:00;;;;;;;11.93;6.77;;;;;;;;;;5007376;28;20539;-71
2024/02/29 13:27:26;;;;;;;10.83;7.07;;;;;;;;;;5009460;28;20265;-71
2024/02/29 13:29:51;;;;;;;12.00;7.37;;;;;;;;;;5015222;28;20206;-71
2024/02/29 13:32:16;;;;;;;10.83;6.57;;;;;;;;;;5012137;28;20175;-72
2024/02/29 13:34:41;;;;;;;11.87;6.53;;;;;;;;;;5014921;28;20232;-70
2024/02/29 13:37:07;;;;;;;13.10;6.97;;;;;;;;;;5014362;28;20203;-70
2024/02/29 13:39:32;;;;;;;9.93;6.13;;;;;;;;;;4996860;28;20178;-72
2024/02/29 13:41:58;;;;;;;10.60;7.37;;;;;;;;;;5013820;28;20191;-71
2024/02/29 13:44:23;;;;;;;11.43;6.30;;;;;;;;;;5007513;28;20178;-71
2024/02/29 13:46:48;;;;;;;14.87;7.37;;;;;;;;;;4995729;28;20333;-71
2024/02/29 13:49:13;;;;;;;11.23;6.27;;;;;;;;;;5008704;28;20177;-71
2024/02/29 13:51:38;;;;;;;9.20;6.57;;;;;;;;;;5014286;28;20274;-71
2024/02/29 13:54:05;;;;;;;12.93;6.87;;;;;;;;;;5014031;28;20568;-71
2024/02/29 13:56:30;;;;;;;9.97;6.97;;;;;;;;;;5013944;28;20175;-72
2024/02/29 13:58:55;;;;;;;10.93;6.47;;;;;;;;;;5014311;28;20199;-71
2024/02/29 14:01:20;;;;;;;7.33;5.67;;;;;;;;;;4991724;28;20214;-71
2024/02/29 14:03:46;;;;;;;9.27;6.57;;;;;;;;;;5008003;28;20176;-71
2024/02/29 14:06:14;;;;;;;10.43;6.07;;;;;;;;;;4992020;28;20638;-71
2024/02/29 14:08:39;;;;;;;11.53;7.50;;;;;;;;;;5006165;28;20233;-72
2024/02/29 14:11:05;;;;;;;8.97;5.67;;;;;;;;;;5018194;23;20230;-72